createdAt,value
2023-04-11T00:04:19.965Z,100039.44
2023-04-11T00:09:21.640Z,100037.75
2023-04-11T00:14:24.643Z,100030.94
2023-04-11T00:19:26.329Z,100041.28
2023-04-11T00:24:27.964Z,100049.25
2023-04-11T00:29:31.180Z,100046.88
2023-04-11T00:34:32.807Z,100033.09
2023-04-11T00:39:34.482Z,100013.34
2023-04-11T00:44:37.611Z,100022.00
2023-04-11T00:49:40.706Z,100027.41
2023-04-11T00:54:42.345Z,99997.91
2023-04-11T00:59:46.074Z,100009.75
2023-04-11T01:04:47.842Z,100013.78
2023-04-11T01:09:51.353Z,99997.25
2023-04-11T01:14:54.438Z,100006.28
2023-04-11T01:19:56.099Z,99992.22
2023-04-11T01:24:59.067Z,100004.50
2023-04-11T01:30:00.869Z,100012.84
2023-04-11T01:35:05.098Z,100021.72
2023-04-11T01:40:09.572Z,100048.28
2023-04-11T01:45:12.332Z,100052.31
2023-04-11T01:50:14.031Z,100045.38
2023-04-11T01:55:17.488Z,100030.09
2023-04-11T02:00:20.063Z,100020.91
2023-04-11T02:05:21.723Z,100047.59
2023-04-11T02:10:25.014Z,100010.59
2023-04-11T02:15:26.736Z,100022.72
2023-04-11T02:20:28.442Z,100012.56
2023-04-11T02:25:31.406Z,100012.69
2023-04-11T02:30:33.015Z,100028.41
2023-04-11T02:35:37.901Z,100025.38
2023-04-11T02:40:41.575Z,100022.25
2023-04-11T02:45:43.347Z,100033.63
2023-04-11T02:50:44.941Z,100023.22
2023-04-11T02:55:47.870Z,99998.63
2023-04-11T03:00:49.722Z,100014.59
2023-04-11T03:05:51.464Z,100021.25
2023-04-11T03:10:54.536Z,100029.16
2023-04-11T03:15:56.460Z,100055.28
2023-04-11T03:20:58.086Z,100050.94
2023-04-11T03:26:01.057Z,100066.09
2023-04-11T03:31:02.745Z,100074.13
2023-04-11T03:36:05.037Z,100071.31
2023-04-11T03:41:08.155Z,100073.28
2023-04-11T03:46:09.779Z,100063.28
2023-04-11T03:51:11.421Z,100051.31
2023-04-11T03:56:14.422Z,100057.66
2023-04-11T04:01:16.090Z,100069.63
2023-04-11T04:06:17.744Z,100067.09
2023-04-11T04:11:20.866Z,100070.94
2023-04-11T04:16:22.513Z,100080.81
2023-04-11T04:21:24.205Z,100086.69
2023-04-11T04:26:27.234Z,100082.88
2023-04-11T04:31:28.880Z,100088.88
2023-04-11T04:36:30.491Z,100098.84
2023-04-11T04:41:33.532Z,100099.78
2023-04-11T04:46:35.163Z,100105.16
2023-04-11T04:51:36.994Z,100110.84
2023-04-11T04:56:40.022Z,100107.63
2023-04-11T05:01:41.914Z,100116.94
2023-04-11T05:06:43.632Z,100125.69
2023-04-11T05:11:46.626Z,100123.75
2023-04-11T05:16:48.392Z,100128.44
2023-04-11T05:21:50.125Z,100135.63
2023-04-11T05:26:53.440Z,100136.94
2023-04-11T05:31:55.670Z,100136.81
2023-04-11T05:36:57.980Z,100146.03
2023-04-11T05:42:01.146Z,100146.63
2023-04-11T05:47:02.761Z,100157.41
2023-04-11T05:52:04.961Z,100152.72
2023-04-11T05:57:08.492Z,100160.09
2023-04-11T06:02:10.660Z,100175.22
2023-04-11T06:07:12.959Z,100175.88
2023-04-11T06:12:16.281Z,100171.88
2023-04-11T06:17:18.407Z,100176.25
2023-04-11T06:22:20.178Z,100180.50
2023-04-11T06:27:23.260Z,100186.72
2023-04-11T06:32:25.024Z,100193.03
2023-04-11T06:37:27.064Z,100184.34
2023-04-11T06:42:30.151Z,100197.28
2023-04-11T06:47:31.809Z,100211.47
2023-04-11T06:52:33.470Z,100213.47
2023-04-11T06:57:36.816Z,100222.44
2023-04-11T07:02:38.734Z,100230.31
2023-04-11T07:07:40.549Z,100231.16
2023-04-11T07:12:43.556Z,100235.81
2023-04-11T07:17:47.364Z,100240.03
2023-04-11T07:22:49.043Z,100247.22
2023-04-11T07:27:52.166Z,100247.16
2023-04-11T07:32:53.865Z,100238.69
2023-04-11T07:37:55.652Z,100244.09
2023-04-11T07:42:59.134Z,100260.66
2023-04-11T07:48:00.830Z,100256.38
2023-04-11T07:53:02.555Z,100259.22
2023-04-11T07:58:06.201Z,100272.94
2023-04-11T08:03:10.395Z,100266.88
2023-04-11T08:08:12.371Z,100260.41
2023-04-11T08:13:15.581Z,100253.41
2023-04-11T08:18:17.350Z,100268.91
2023-04-11T08:23:19.170Z,100272.91
2023-04-11T08:28:22.723Z,100263.41
2023-04-11T08:33:27.422Z,100274.66
2023-04-11T08:38:29.035Z,100277.19
2023-04-11T08:43:34.519Z,100271.09
2023-04-11T08:48:36.340Z,100266.47
2023-04-11T08:53:39.694Z,100280.94
2023-04-11T08:58:43.703Z,100291.47
2023-04-11T09:03:51.163Z,100281.66
2023-04-11T09:08:53.263Z,100287.06
2023-04-11T09:14:10.208Z,100298.50
2023-04-11T09:19:24.352Z,100300.66
2023-04-11T09:24:26.827Z,100306.16
2023-04-11T09:29:40.936Z,100293.50
2023-04-11T09:34:42.821Z,100289.22
2023-04-11T09:39:44.598Z,100288.28
2023-04-11T09:44:55.411Z,100305.31
2023-04-11T09:49:57.242Z,100297.31
2023-04-11T09:55:00.367Z,100286.91
2023-04-11T10:00:12.543Z,100291.97
2023-04-11T10:05:17.530Z,100295.84
2023-04-11T10:10:29.971Z,100289.63
2023-04-11T10:16:06.266Z,100289.84
2023-04-11T10:21:38.406Z,100287.81
2023-04-11T10:26:48.483Z,100308.94
2023-04-11T10:32:11.804Z,100300.84
2023-04-11T10:37:13.603Z,100301.53
2023-04-11T10:42:27.521Z,100293.03
2023-04-11T10:47:31.543Z,100285.25
2023-04-11T10:52:37.813Z,100276.75
2023-04-11T10:58:04.106Z,100274.59
2023-04-11T11:03:14.296Z,100268.19
2023-04-11T11:08:27.185Z,100275.34
2023-04-11T11:13:39.271Z,100276.72
2023-04-11T11:18:45.704Z,100289.69
2023-04-11T11:24:03.061Z,100301.84
2023-04-11T11:29:05.239Z,100292.16
2023-04-11T11:34:23.083Z,100271.66
2023-04-11T11:39:26.752Z,100291.81
2023-04-11T11:44:30.277Z,100293.09
2023-04-11T11:49:47.096Z,100291.06
2023-04-11T11:54:49.127Z,100291.94
2023-04-11T11:59:54.554Z,100300.72
2023-04-11T12:04:59.149Z,100282.78
2023-04-11T12:10:01.669Z,100276.19
2023-04-11T12:15:09.677Z,100264.34
2023-04-11T12:20:12.668Z,100264.00
2023-04-11T12:25:15.223Z,100263.59
2023-04-11T12:30:21.141Z,100260.53
2023-04-11T12:35:24.372Z,100272.59
2023-04-11T12:40:27.422Z,100268.31
2023-04-11T12:45:29.126Z,100266.22
2023-04-11T12:50:32.273Z,100274.44
2023-04-11T12:55:34.912Z,100275.41
2023-04-11T13:00:36.644Z,100267.44
2023-04-11T13:05:40.496Z,100256.88
2023-04-11T13:10:42.663Z,100269.84
2023-04-11T13:15:44.744Z,100259.63
2023-04-11T13:20:47.925Z,100260.16
2023-04-11T13:25:49.745Z,100263.09
2023-04-11T13:30:51.385Z,100267.88
2023-04-11T13:35:54.408Z,100273.03
2023-04-11T13:40:56.100Z,100278.50
2023-04-11T13:45:58.288Z,100269.22
2023-04-11T13:51:01.464Z,100280.38
2023-04-11T13:56:03.128Z,100272.72
2023-04-11T14:01:05.254Z,100280.69
2023-04-11T14:06:08.980Z,100271.09
2023-04-11T14:11:10.644Z,100277.09
2023-04-11T14:16:12.355Z,100284.00
2023-04-11T14:21:15.408Z,100293.03
2023-04-11T14:26:17.012Z,100286.47
2023-04-11T14:31:18.676Z,100291.88
2023-04-11T14:36:21.769Z,100301.56
2023-04-11T14:41:23.732Z,100317.09
2023-04-11T14:46:26.824Z,100305.25
2023-04-11T14:51:31.382Z,100285.94
2023-04-11T14:56:33.138Z,100272.72
2023-04-11T15:01:34.951Z,100267.50
2023-04-11T15:06:37.986Z,100255.38
2023-04-11T15:11:39.594Z,100249.09
2023-04-11T15:16:41.234Z,100250.66
2023-04-11T15:21:44.297Z,100239.25
2023-04-11T15:26:45.946Z,100246.41
2023-04-11T15:31:47.687Z,100240.31
2023-04-11T15:36:50.709Z,100258.72
2023-04-11T15:41:52.394Z,100255.41
2023-04-11T15:46:54.010Z,100250.81
2023-04-11T15:51:58.980Z,100254.41
2023-04-11T15:57:01.139Z,100253.47
2023-04-11T16:02:02.898Z,100230.97
2023-04-11T16:07:06.439Z,100223.44
2023-04-11T16:12:08.261Z,100230.13
2023-04-11T16:17:11.175Z,100228.84
2023-04-11T16:22:14.228Z,100223.69
2023-04-11T16:27:15.913Z,100218.38
2023-04-11T16:32:17.833Z,100214.28
2023-04-11T16:37:21.015Z,100204.97
2023-04-11T16:42:25.453Z,100203.28
2023-04-11T16:47:27.555Z,100196.50
2023-04-11T16:52:31.330Z,100194.84
2023-04-11T16:57:33.061Z,100196.31
2023-04-11T17:02:34.987Z,100202.09
2023-04-11T17:07:38.046Z,100200.47
2023-04-11T17:12:39.676Z,100203.47
2023-04-11T17:17:41.436Z,100203.72
2023-04-11T17:22:44.637Z,100193.59
2023-04-11T17:27:46.337Z,100184.22
2023-04-11T17:32:48.106Z,100190.53
2023-04-11T17:37:51.702Z,100191.28
2023-04-11T17:42:53.453Z,100195.25
2023-04-11T17:47:55.142Z,100196.28
2023-04-11T17:52:58.206Z,100192.59
2023-04-11T17:57:59.810Z,100188.16
2023-04-11T18:03:01.411Z,100181.63
2023-04-11T18:08:04.619Z,100177.19
2023-04-11T18:13:06.299Z,100174.41
2023-04-11T18:18:08.086Z,100186.56
2023-04-11T18:23:11.123Z,100179.19
2023-04-11T18:28:12.810Z,100189.50
2023-04-11T18:33:14.511Z,100188.25
2023-04-11T18:38:17.498Z,100195.34
2023-04-11T18:43:19.255Z,100200.34
2023-04-11T18:48:21.002Z,100194.78
2023-04-11T18:53:24.107Z,100200.63
2023-04-11T18:58:26.778Z,100195.06
2023-04-11T19:03:30.298Z,100180.75
2023-04-11T19:08:33.433Z,100179.63
2023-04-11T19:13:35.149Z,100177.53
2023-04-11T19:18:36.858Z,100179.03
2023-04-11T19:23:39.972Z,100175.81
2023-04-11T19:28:41.796Z,100162.47
2023-04-11T19:33:43.469Z,100158.44
2023-04-11T19:38:46.480Z,100163.47
2023-04-11T19:43:48.410Z,100155.66
2023-04-11T19:48:50.055Z,100151.19
2023-04-11T19:53:53.034Z,100152.72
2023-04-11T19:58:54.659Z,100146.03
2023-04-11T20:03:56.750Z,100143.81
2023-04-11T20:09:00.000Z,100126.59
2023-04-11T20:14:01.675Z,100121.00
2023-04-11T20:19:03.347Z,100110.03
2023-04-11T20:24:06.800Z,100112.38
2023-04-11T20:29:08.426Z,100106.28
2023-04-11T20:34:10.221Z,100101.69
2023-04-11T20:39:13.399Z,100090.88
2023-04-11T20:44:15.103Z,100078.34
2023-04-11T20:49:19.882Z,100075.00
2023-04-11T20:54:23.067Z,100068.47
2023-04-11T20:59:25.778Z,100067.91
2023-04-11T21:04:27.619Z,100055.94
2023-04-11T21:09:30.983Z,100049.66
2023-04-11T21:14:32.658Z,100044.25
2023-04-11T21:19:34.556Z,100031.47
2023-04-11T21:24:37.589Z,100027.31
2023-04-11T21:29:39.806Z,100017.09
2023-04-11T21:34:44.349Z,100002.00
2023-04-11T21:39:48.095Z,100003.13
2023-04-11T21:44:49.768Z,100005.03
2023-04-11T21:49:54.206Z,100001.44
2023-04-11T21:54:57.363Z,99999.75
2023-04-11T21:59:59.042Z,99996.25
2023-04-11T22:05:06.427Z,99991.50
2023-04-11T22:10:10.990Z,99978.75
2023-04-11T22:15:13.026Z,99984.47
2023-04-11T22:20:14.751Z,99978.31
2023-04-11T22:25:17.871Z,99965.78
2023-04-11T22:30:19.550Z,99952.75
2023-04-11T22:35:21.386Z,99937.88
2023-04-11T22:40:24.796Z,99932.16
2023-04-11T22:45:26.518Z,99930.09
2023-04-11T22:50:28.238Z,99924.69
2023-04-11T22:55:32.138Z,99914.94
2023-04-11T23:00:33.733Z,99915.50
2023-04-11T23:05:37.333Z,99910.22
2023-04-11T23:10:40.396Z,99908.53
2023-04-11T23:15:42.791Z,99906.63
2023-04-11T23:20:46.050Z,99897.84
2023-04-11T23:25:49.052Z,99888.53
2023-04-11T23:30:50.748Z,99883.97
2023-04-11T23:35:52.835Z,99866.34
2023-04-11T23:40:55.860Z,99863.53
2023-04-11T23:45:57.970Z,99855.91
2023-04-11T23:50:59.541Z,99858.00
2023-04-11T23:56:02.696Z,99860.50
